sensor_id;sensor_type;location;lat;lon;timestamp;temperature;humidity
31311;DHT22;17937;51.508;7.534;2022-11-13T00:00:32;10.20;99.90
31311;DHT22;17937;51.508;7.534;2022-11-13T00:02:58;10.20;99.90
31311;DHT22;17937;51.508;7.534;2022-11-13T00:05:24;10.20;99.90
31311;DHT22;17937;51.508;7.534;2022-11-13T00:07:49;10.20;99.90
31311;DHT22;17937;51.508;7.534;2022-11-13T00:10:15;10.30;99.90
31311;DHT22;17937;51.508;7.534;2022-11-13T00:12:41;10.30;99.90
31311;DHT22;17937;51.508;7.534;2022-11-13T00:15:06;10.30;99.90
31311;DHT22;17937;51.508;7.534;2022-11-13T00:17:32;10.30;99.90
31311;DHT22;17937;51.508;7.534;2022-11-13T00:19:58;10.30;99.90
31311;DHT22;17937;51.508;7.534;2022-11-13T00:22:23;10.20;99.90
31311;DHT22;17937;51.508;7.534;2022-11-13T00:24:49;10.20;99.90
31311;DHT22;17937;51.508;7.534;2022-11-13T00:27:14;10.20;99.90
31311;DHT22;17937;51.508;7.534;2022-11-13T00:29:40;10.20;99.90
31311;DHT22;17937;51.508;7.534;2022-11-13T00:32:06;10.30;99.90
31311;DHT22;17937;51.508;7.534;2022-11-13T00:34:31;10.20;99.90
31311;DHT22;17937;51.508;7.534;2022-11-13T00:36:57;10.20;99.90
31311;DHT22;17937;51.508;7.534;2022-11-13T00:39:23;10.20;99.90
31311;DHT22;17937;51.508;7.534;2022-11-13T00:41:48;10.20;99.90
31311;DHT22;17937;51.508;7.534;2022-11-13T00:44:14;10.30;99.90
31311;DHT22;17937;51.508;7.534;2022-11-13T00:46:39;10.30;99.90
31311;DHT22;17937;51.508;7.534;2022-11-13T00:49:05;10.30;99.90
31311;DHT22;17937;51.508;7.534;2022-11-13T00:51:31;10.30;99.90
31311;DHT22;17937;51.508;7.534;2022-11-13T00:53:56;10.40;99.90
31311;DHT22;17937;51.508;7.534;2022-11-13T00:56:22;10.40;99.90
31311;DHT22;17937;51.508;7.534;2022-11-13T00:58:47;10.40;99.90
31311;DHT22;17937;51.508;7.534;2022-11-13T01:01:15;10.40;99.90
31311;DHT22;17937;51.508;7.534;2022-11-13T01:03:41;10.40;99.90
31311;DHT22;17937;51.508;7.534;2022-11-13T01:06:13;10.40;99.90
31311;DHT22;17937;51.508;7.534;2022-11-13T01:08:39;10.40;99.90
31311;DHT22;17937;51.508;7.534;2022-11-13T01:11:10;10.40;99.90
31311;DHT22;17937;51.508;7.534;2022-11-13T01:13:37;10.40;99.90
31311;DHT22;17937;51.508;7.534;2022-11-13T01:16:07;10.40;99.90
31311;DHT22;17937;51.508;7.534;2022-11-13T01:18:34;10.40;99.90
31311;DHT22;17937;51.508;7.534;2022-11-13T01:21:20;10.40;99.90
31311;DHT22;17937;51.508;7.534;2022-11-13T01:23:46;10.40;99.90
31311;DHT22;17937;51.508;7.534;2022-11-13T01:26:19;10.30;99.90
31311;DHT22;17937;51.508;7.534;2022-11-13T01:28:44;10.20;99.90
31311;DHT22;17937;51.508;7.534;2022-11-13T01:31:17;10.20;99.90
31311;DHT22;17937;51.508;7.534;2022-11-13T01:33:43;10.20;99.90
31311;DHT22;17937;51.508;7.534;2022-11-13T01:36:18;10.20;99.90
31311;DHT22;17937;51.508;7.534;2022-11-13T01:38:44;10.20;99.90
31311;DHT22;17937;51.508;7.534;2022-11-13T01:41:20;10.10;99.90
31311;DHT22;17937;51.508;7.534;2022-11-13T01:43:46;10.10;99.90
31311;DHT22;17937;51.508;7.534;2022-11-13T01:46:19;10.10;99.90
31311;DHT22;17937;51.508;7.534;2022-11-13T01:48:49;10.10;99.90
31311;DHT22;17937;51.508;7.534;2022-11-13T01:51:29;10.10;99.90
31311;DHT22;17937;51.508;7.534;2022-11-13T01:53:56;10.10;99.90
31311;DHT22;17937;51.508;7.534;2022-11-13T01:56:23;10.10;99.90
31311;DHT22;17937;51.508;7.534;2022-11-13T01:58:54;10.10;99.90
31311;DHT22;17937;51.508;7.534;2022-11-13T02:01:21;10.00;99.90
31311;DHT22;17937;51.508;7.534;2022-11-13T02:03:47;10.00;99.90
31311;DHT22;17937;51.508;7.534;2022-11-13T02:06:13;10.00;99.90
31311;DHT22;17937;51.508;7.534;2022-11-13T02:08:38;10.00;99.90
31311;DHT22;17937;51.508;7.534;2022-11-13T02:11:04;9.90;99.90
31311;DHT22;17937;51.508;7.534;2022-11-13T02:13:30;9.90;99.90
31311;DHT22;17937;51.508;7.534;2022-11-13T02:15:56;9.90;99.90
31311;DHT22;17937;51.508;7.534;2022-11-13T02:18:23;9.90;99.90
31311;DHT22;17937;51.508;7.534;2022-11-13T02:21:08;9.80;99.90
31311;DHT22;17937;51.508;7.534;2022-11-13T02:23:47;9.80;99.90
31311;DHT22;17937;51.508;7.534;2022-11-13T02:26:16;9.80;99.90
31311;DHT22;17937;51.508;7.534;2022-11-13T02:28:44;9.70;99.90
31311;DHT22;17937;51.508;7.534;2022-11-13T02:31:12;9.60;99.90
31311;DHT22;17937;51.508;7.534;2022-11-13T02:33:38;9.60;99.90
31311;DHT22;17937;51.508;7.534;2022-11-13T02:36:04;9.60;99.90
31311;DHT22;17937;51.508;7.534;2022-11-13T02:38:32;9.60;99.90
31311;DHT22;17937;51.508;7.534;2022-11-13T02:40:59;9.60;99.90
31311;DHT22;17937;51.508;7.534;2022-11-13T02:43:25;9.60;99.90
31311;DHT22;17937;51.508;7.534;2022-11-13T02:45:50;9.60;99.90
31311;DHT22;17937;51.508;7.534;2022-11-13T02:48:16;9.60;99.90
31311;DHT22;17937;51.508;7.534;2022-11-13T02:50:42;9.60;99.90
31311;DHT22;17937;51.508;7.534;2022-11-13T02:53:07;9.50;99.90
31311;DHT22;17937;51.508;7.534;2022-11-13T02:55:33;9.40;99.90
31311;DHT22;17937;51.508;7.534;2022-11-13T02:57:59;9.40;99.90
31311;DHT22;17937;51.508;7.534;2022-11-13T03:00:24;9.40;99.90
31311;DHT22;17937;51.508;7.534;2022-11-13T03:02:50;9.30;99.90
31311;DHT22;17937;51.508;7.534;2022-11-13T03:05:16;9.30;99.90
31311;DHT22;17937;51.508;7.534;2022-11-13T03:07:41;9.20;99.90
31311;DHT22;17937;51.508;7.534;2022-11-13T03:10:08;9.30;99.90
31311;DHT22;17937;51.508;7.534;2022-11-13T03:12:33;9.20;99.90
31311;DHT22;17937;51.508;7.534;2022-11-13T03:14:59;9.30;99.90
31311;DHT22;17937;51.508;7.534;2022-11-13T03:17:25;9.20;99.90
31311;DHT22;17937;51.508;7.534;2022-11-13T03:19:50;9.20;99.90
31311;DHT22;17937;51.508;7.534;2022-11-13T03:22:16;9.20;99.90
31311;DHT22;17937;51.508;7.534;2022-11-13T03:24:41;9.20;99.90
31311;DHT22;17937;51.508;7.534;2022-11-13T03:27:07;9.20;99.90
31311;DHT22;17937;51.508;7.534;2022-11-13T03:29:32;9.20;99.90
31311;DHT22;17937;51.508;7.534;2022-11-13T03:31:58;9.20;99.90
31311;DHT22;17937;51.508;7.534;2022-11-13T03:34:24;9.10;99.90
31311;DHT22;17937;51.508;7.534;2022-11-13T03:36:50;9.10;99.90
31311;DHT22;17937;51.508;7.534;2022-11-13T03:39:15;9.20;99.90
31311;DHT22;17937;51.508;7.534;2022-11-13T03:41:41;9.20;99.90
31311;DHT22;17937;51.508;7.534;2022-11-13T03:44:06;9.20;99.90
31311;DHT22;17937;51.508;7.534;2022-11-13T03:46:32;9.20;99.90
31311;DHT22;17937;51.508;7.534;2022-11-13T03:48:57;9.20;99.90
31311;DHT22;17937;51.508;7.534;2022-11-13T03:51:23;9.30;99.90
31311;DHT22;17937;51.508;7.534;2022-11-13T03:53:49;9.00;99.90
31311;DHT22;17937;51.508;7.534;2022-11-13T03:56:14;8.70;99.90
31311;DHT22;17937;51.508;7.534;2022-11-13T03:58:40;8.50;99.90
31311;DHT22;17937;51.508;7.534;2022-11-13T04:01:06;8.40;99.90
31311;DHT22;17937;51.508;7.534;2022-11-13T04:03:31;8.20;99.90
31311;DHT22;17937;51.508;7.534;2022-11-13T04:05:57;8.10;99.90
31311;DHT22;17937;51.508;7.534;2022-11-13T04:08:22;8.20;99.90
31311;DHT22;17937;51.508;7.534;2022-11-13T04:10:48;8.10;99.90
31311;DHT22;17937;51.508;7.534;2022-11-13T04:13:13;8.00;99.90
31311;DHT22;17937;51.508;7.534;2022-11-13T04:15:39;8.00;99.90
31311;DHT22;17937;51.508;7.534;2022-11-13T04:18:04;8.20;99.90
31311;DHT22;17937;51.508;7.534;2022-11-13T04:20:31;8.40;99.90
31311;DHT22;17937;51.508;7.534;2022-11-13T04:22:56;8.50;99.90
31311;DHT22;17937;51.508;7.534;2022-11-13T04:25:23;8.60;99.90
31311;DHT22;17937;51.508;7.534;2022-11-13T04:27:50;8.70;99.90
31311;DHT22;17937;51.508;7.534;2022-11-13T04:30:16;8.70;99.90
31311;DHT22;17937;51.508;7.534;2022-11-13T04:32:41;8.70;99.90
31311;DHT22;17937;51.508;7.534;2022-11-13T04:35:07;8.70;99.90
31311;DHT22;17937;51.508;7.534;2022-11-13T04:37:33;8.60;99.90
31311;DHT22;17937;51.508;7.534;2022-11-13T04:39:59;8.60;99.90
31311;DHT22;17937;51.508;7.534;2022-11-13T04:42:24;8.70;99.90
31311;DHT22;17937;51.508;7.534;2022-11-13T04:45:08;8.60;99.90
31311;DHT22;17937;51.508;7.534;2022-11-13T04:47:34;8.60;99.90
31311;DHT22;17937;51.508;7.534;2022-11-13T04:50:00;8.60;99.90
31311;DHT22;17937;51.508;7.534;2022-11-13T04:52:25;8.50;99.90
31311;DHT22;17937;51.508;7.534;2022-11-13T04:54:53;8.40;99.90
31311;DHT22;17937;51.508;7.534;2022-11-13T04:57:18;8.20;99.90
31311;DHT22;17937;51.508;7.534;2022-11-13T04:59:44;8.00;99.90
31311;DHT22;17937;51.508;7.534;2022-11-13T05:02:09;7.90;99.90
31311;DHT22;17937;51.508;7.534;2022-11-13T05:04:35;8.00;99.90
31311;DHT22;17937;51.508;7.534;2022-11-13T05:07:00;8.00;99.90
31311;DHT22;17937;51.508;7.534;2022-11-13T05:09:26;8.10;99.90
31311;DHT22;17937;51.508;7.534;2022-11-13T05:11:52;8.10;99.90
31311;DHT22;17937;51.508;7.534;2022-11-13T05:14:17;8.20;99.90
31311;DHT22;17937;51.508;7.534;2022-11-13T05:16:43;8.20;99.90
31311;DHT22;17937;51.508;7.534;2022-11-13T05:19:09;8.30;99.90
31311;DHT22;17937;51.508;7.534;2022-11-13T05:21:35;8.30;99.90
31311;DHT22;17937;51.508;7.534;2022-11-13T05:24:03;8.20;99.90
31311;DHT22;17937;51.508;7.534;2022-11-13T05:26:29;8.20;99.90
31311;DHT22;17937;51.508;7.534;2022-11-13T05:28:58;8.20;99.90
31311;DHT22;17937;51.508;7.534;2022-11-13T05:31:25;8.20;99.90
31311;DHT22;17937;51.508;7.534;2022-11-13T05:33:51;8.20;99.90
31311;DHT22;17937;51.508;7.534;2022-11-13T05:36:17;8.20;99.90
31311;DHT22;17937;51.508;7.534;2022-11-13T05:38:43;8.10;99.90
31311;DHT22;17937;51.508;7.534;2022-11-13T05:41:11;8.00;99.90
31311;DHT22;17937;51.508;7.534;2022-11-13T05:43:38;7.90;99.90
31311;DHT22;17937;51.508;7.534;2022-11-13T05:46:24;7.80;99.90
31311;DHT22;17937;51.508;7.534;2022-11-13T05:48:58;7.70;99.90
31311;DHT22;17937;51.508;7.534;2022-11-13T05:51:27;7.70;99.90
31311;DHT22;17937;51.508;7.534;2022-11-13T05:53:54;7.70;99.90
31311;DHT22;17937;51.508;7.534;2022-11-13T05:56:28;7.90;99.90
31311;DHT22;17937;51.508;7.534;2022-11-13T05:58:54;7.90;99.90
31311;DHT22;17937;51.508;7.534;2022-11-13T06:01:26;8.00;99.90
31311;DHT22;17937;51.508;7.534;2022-11-13T06:03:54;7.90;99.90
31311;DHT22;17937;51.508;7.534;2022-11-13T06:06:21;8.00;99.90
31311;DHT22;17937;51.508;7.534;2022-11-13T06:08:47;8.00;99.90
31311;DHT22;17937;51.508;7.534;2022-11-13T06:11:18;8.00;99.90
31311;DHT22;17937;51.508;7.534;2022-11-13T06:13:45;8.00;99.90
31311;DHT22;17937;51.508;7.534;2022-11-13T06:16:35;8.00;99.90
31311;DHT22;17937;51.508;7.534;2022-11-13T06:19:00;8.00;99.90
31311;DHT22;17937;51.508;7.534;2022-11-13T06:21:28;7.90;99.90
31311;DHT22;17937;51.508;7.534;2022-11-13T06:23:55;7.80;99.90
31311;DHT22;17937;51.508;7.534;2022-11-13T06:26:23;7.50;99.90
31311;DHT22;17937;51.508;7.534;2022-11-13T06:28:49;7.30;99.90
31311;DHT22;17937;51.508;7.534;2022-11-13T06:31:26;7.30;99.90
31311;DHT22;17937;51.508;7.534;2022-11-13T06:33:52;7.20;99.90
31311;DHT22;17937;51.508;7.534;2022-11-13T06:36:23;7.00;99.90
31311;DHT22;17937;51.508;7.534;2022-11-13T06:38:49;6.90;99.90
31311;DHT22;17937;51.508;7.534;2022-11-13T06:41:17;6.90;99.90
31311;DHT22;17937;51.508;7.534;2022-11-13T06:43:43;6.80;99.90
31311;DHT22;17937;51.508;7.534;2022-11-13T06:46:14;6.70;99.90
31311;DHT22;17937;51.508;7.534;2022-11-13T06:48:41;6.70;99.90
31311;DHT22;17937;51.508;7.534;2022-11-13T06:51:10;6.60;99.90
31311;DHT22;17937;51.508;7.534;2022-11-13T06:53:37;6.70;99.90
31311;DHT22;17937;51.508;7.534;2022-11-13T06:56:05;6.60;99.90
31311;DHT22;17937;51.508;7.534;2022-11-13T06:58:31;6.50;99.90
31311;DHT22;17937;51.508;7.534;2022-11-13T07:00:56;6.60;99.90
31311;DHT22;17937;51.508;7.534;2022-11-13T07:03:24;6.50;99.90
31311;DHT22;17937;51.508;7.534;2022-11-13T07:05:50;6.50;99.90
31311;DHT22;17937;51.508;7.534;2022-11-13T07:08:16;6.40;99.90
31311;DHT22;17937;51.508;7.534;2022-11-13T07:10:42;6.40;99.90
31311;DHT22;17937;51.508;7.534;2022-11-13T07:13:08;6.30;99.90
31311;DHT22;17937;51.508;7.534;2022-11-13T07:15:38;6.40;99.90
31311;DHT22;17937;51.508;7.534;2022-11-13T07:18:05;6.40;99.90
31311;DHT22;17937;51.508;7.534;2022-11-13T07:20:31;6.30;99.90
31311;DHT22;17937;51.508;7.534;2022-11-13T07:22:59;6.40;99.90
31311;DHT22;17937;51.508;7.534;2022-11-13T07:25:26;6.40;99.90
31311;DHT22;17937;51.508;7.534;2022-11-13T07:27:51;6.50;99.90
31311;DHT22;17937;51.508;7.534;2022-11-13T07:30:17;6.50;99.90
31311;DHT22;17937;51.508;7.534;2022-11-13T07:32:43;6.40;99.90
31311;DHT22;17937;51.508;7.534;2022-11-13T07:35:09;6.50;99.90
31311;DHT22;17937;51.508;7.534;2022-11-13T07:37:34;6.50;99.90
31311;DHT22;17937;51.508;7.534;2022-11-13T07:40:00;6.50;99.90
31311;DHT22;17937;51.508;7.534;2022-11-13T07:42:26;6.60;99.90
31311;DHT22;17937;51.508;7.534;2022-11-13T07:44:51;6.60;99.90
31311;DHT22;17937;51.508;7.534;2022-11-13T07:47:17;6.60;99.90
31311;DHT22;17937;51.508;7.534;2022-11-13T07:49:42;6.60;99.90
31311;DHT22;17937;51.508;7.534;2022-11-13T07:52:08;6.70;99.90
31311;DHT22;17937;51.508;7.534;2022-11-13T07:54:34;6.80;99.90
31311;DHT22;17937;51.508;7.534;2022-11-13T07:56:59;7.00;99.90
31311;DHT22;17937;51.508;7.534;2022-11-13T07:59:25;7.30;99.90
31311;DHT22;17937;51.508;7.534;2022-11-13T08:01:50;7.50;99.90
31311;DHT22;17937;51.508;7.534;2022-11-13T08:04:16;7.60;99.90
31311;DHT22;17937;51.508;7.534;2022-11-13T08:06:42;8.00;99.90
31311;DHT22;17937;51.508;7.534;2022-11-13T08:09:07;9.00;99.90
31311;DHT22;17937;51.508;7.534;2022-11-13T08:11:33;10.20;99.90
31311;DHT22;17937;51.508;7.534;2022-11-13T08:13:59;11.30;99.90
31311;DHT22;17937;51.508;7.534;2022-11-13T08:16:25;12.10;99.90
31311;DHT22;17937;51.508;7.534;2022-11-13T08:18:50;12.80;99.90
31311;DHT22;17937;51.508;7.534;2022-11-13T08:21:17;13.70;99.90
31311;DHT22;17937;51.508;7.534;2022-11-13T08:23:42;14.10;99.90
31311;DHT22;17937;51.508;7.534;2022-11-13T08:26:09;14.30;99.90
31311;DHT22;17937;51.508;7.534;2022-11-13T08:28:35;14.80;99.90
31311;DHT22;17937;51.508;7.534;2022-11-13T08:31:01;15.20;99.90
31311;DHT22;17937;51.508;7.534;2022-11-13T08:33:28;15.80;99.90
31311;DHT22;17937;51.508;7.534;2022-11-13T08:35:54;16.10;99.90
31311;DHT22;17937;51.508;7.534;2022-11-13T08:38:21;16.50;99.00
31311;DHT22;17937;51.508;7.534;2022-11-13T08:40:47;16.90;98.00
31311;DHT22;17937;51.508;7.534;2022-11-13T08:43:13;16.90;97.70
31311;DHT22;17937;51.508;7.534;2022-11-13T08:45:39;16.50;97.80
31311;DHT22;17937;51.508;7.534;2022-11-13T08:48:04;16.10;98.90
31311;DHT22;17937;51.508;7.534;2022-11-13T08:50:31;16.60;98.00
31311;DHT22;17937;51.508;7.534;2022-11-13T08:52:58;17.00;97.20
31311;DHT22;17937;51.508;7.534;2022-11-13T08:55:24;17.10;96.80
31311;DHT22;17937;51.508;7.534;2022-11-13T08:57:50;17.40;95.80
31311;DHT22;17937;51.508;7.534;2022-11-13T09:00:17;17.70;95.70
31311;DHT22;17937;51.508;7.534;2022-11-13T09:02:43;18.00;95.20
31311;DHT22;17937;51.508;7.534;2022-11-13T09:05:09;18.10;94.80
31311;DHT22;17937;51.508;7.534;2022-11-13T09:07:34;18.70;93.70
31311;DHT22;17937;51.508;7.534;2022-11-13T09:10:00;18.90;93.60
31311;DHT22;17937;51.508;7.534;2022-11-13T09:12:26;18.70;93.00
31311;DHT22;17937;51.508;7.534;2022-11-13T09:14:51;18.10;93.60
31311;DHT22;17937;51.508;7.534;2022-11-13T09:17:17;17.50;95.70
31311;DHT22;17937;51.508;7.534;2022-11-13T09:19:42;17.10;94.10
31311;DHT22;17937;51.508;7.534;2022-11-13T09:22:09;16.70;94.70
31311;DHT22;17937;51.508;7.534;2022-11-13T09:24:34;16.50;95.00
31311;DHT22;17937;51.508;7.534;2022-11-13T09:27:00;16.20;96.70
31311;DHT22;17937;51.508;7.534;2022-11-13T09:29:26;16.10;96.30
31311;DHT22;17937;51.508;7.534;2022-11-13T09:31:53;16.60;95.10
31311;DHT22;17937;51.508;7.534;2022-11-13T09:34:19;17.00;94.20
31311;DHT22;17937;51.508;7.534;2022-11-13T09:36:45;17.10;95.20
31311;DHT22;17937;51.508;7.534;2022-11-13T09:39:10;17.20;95.50
31311;DHT22;17937;51.508;7.534;2022-11-13T09:42:01;17.20;97.70
31311;DHT22;17937;51.508;7.534;2022-11-13T09:44:33;17.00;97.80
31311;DHT22;17937;51.508;7.534;2022-11-13T09:47:41;16.90;98.50
31311;DHT22;17937;51.508;7.534;2022-11-13T09:50:16;17.00;95.90
31311;DHT22;17937;51.508;7.534;2022-11-13T09:52:43;16.70;96.30
31311;DHT22;17937;51.508;7.534;2022-11-13T09:55:16;16.80;96.30
31311;DHT22;17937;51.508;7.534;2022-11-13T09:58:10;17.00;96.00
31311;DHT22;17937;51.508;7.534;2022-11-13T10:00:39;17.10;95.80
31311;DHT22;17937;51.508;7.534;2022-11-13T10:03:24;16.90;96.10
31311;DHT22;17937;51.508;7.534;2022-11-13T10:09:02;17.00;96.40
31311;DHT22;17937;51.508;7.534;2022-11-13T10:11:45;16.90;98.00
31311;DHT22;17937;51.508;7.534;2022-11-13T10:14:20;16.80;99.90
31311;DHT22;17937;51.508;7.534;2022-11-13T10:17:14;16.70;99.90
31311;DHT22;17937;51.508;7.534;2022-11-13T10:19:52;16.70;99.90
31311;DHT22;17937;51.508;7.534;2022-11-13T10:24:59;16.50;99.90
31311;DHT22;17937;51.508;7.534;2022-11-13T10:27:26;16.50;99.90
31311;DHT22;17937;51.508;7.534;2022-11-13T10:29:51;16.50;99.90
31311;DHT22;17937;51.508;7.534;2022-11-13T10:32:20;16.40;99.90
31311;DHT22;17937;51.508;7.534;2022-11-13T10:34:51;16.30;99.90
31311;DHT22;17937;51.508;7.534;2022-11-13T10:37:50;16.30;99.90
31311;DHT22;17937;51.508;7.534;2022-11-13T10:40:34;16.10;99.90
31311;DHT22;17937;51.508;7.534;2022-11-13T10:43:19;15.90;99.90
31311;DHT22;17937;51.508;7.534;2022-11-13T10:45:56;15.70;99.90
31311;DHT22;17937;51.508;7.534;2022-11-13T10:48:32;15.70;99.90
31311;DHT22;17937;51.508;7.534;2022-11-13T10:51:01;15.80;99.90
31311;DHT22;17937;51.508;7.534;2022-11-13T10:53:41;15.90;99.90
31311;DHT22;17937;51.508;7.534;2022-11-13T10:56:27;15.90;99.90
31311;DHT22;17937;51.508;7.534;2022-11-13T10:59:13;15.90;99.90
31311;DHT22;17937;51.508;7.534;2022-11-13T11:01:40;15.90;99.90
31311;DHT22;17937;51.508;7.534;2022-11-13T11:04:20;15.80;99.90
31311;DHT22;17937;51.508;7.534;2022-11-13T11:06:49;15.80;99.90
31311;DHT22;17937;51.508;7.534;2022-11-13T11:12:09;15.90;99.90
31311;DHT22;17937;51.508;7.534;2022-11-13T11:14:44;15.80;99.90
31311;DHT22;17937;51.508;7.534;2022-11-13T11:17:13;15.80;99.90
31311;DHT22;17937;51.508;7.534;2022-11-13T11:19:40;15.80;99.90
31311;DHT22;17937;51.508;7.534;2022-11-13T11:22:14;15.90;99.90
31311;DHT22;17937;51.508;7.534;2022-11-13T11:25:11;15.80;99.90
31311;DHT22;17937;51.508;7.534;2022-11-13T11:27:40;15.90;99.90
31311;DHT22;17937;51.508;7.534;2022-11-13T11:30:21;15.90;99.90
31311;DHT22;17937;51.508;7.534;2022-11-13T11:32:56;15.90;99.90
31311;DHT22;17937;51.508;7.534;2022-11-13T11:38:14;16.00;99.90
31311;DHT22;17937;51.508;7.534;2022-11-13T11:40:42;16.00;99.90
31311;DHT22;17937;51.508;7.534;2022-11-13T11:46:03;16.20;99.90
31311;DHT22;17937;51.508;7.534;2022-11-13T11:48:30;16.20;99.90
31311;DHT22;17937;51.508;7.534;2022-11-13T11:52:17;16.30;99.90
31311;DHT22;17937;51.508;7.534;2022-11-13T11:57:05;16.50;99.90
31311;DHT22;17937;51.508;7.534;2022-11-13T12:05:22;16.40;99.90
31311;DHT22;17937;51.508;7.534;2022-11-13T12:08:14;16.40;99.90
31311;DHT22;17937;51.508;7.534;2022-11-13T12:13:29;16.40;99.90
31311;DHT22;17937;51.508;7.534;2022-11-13T12:16:26;16.40;99.90
31311;DHT22;17937;51.508;7.534;2022-11-13T12:19:03;16.50;99.90
31311;DHT22;17937;51.508;7.534;2022-11-13T12:21:59;16.50;99.90
31311;DHT22;17937;51.508;7.534;2022-11-13T12:27:33;16.50;99.90
31311;DHT22;17937;51.508;7.534;2022-11-13T12:30:13;16.60;99.90
31311;DHT22;17937;51.508;7.534;2022-11-13T12:32:58;16.60;99.90
31311;DHT22;17937;51.508;7.534;2022-11-13T12:35:26;16.60;99.90
31311;DHT22;17937;51.508;7.534;2022-11-13T12:40:26;16.50;99.90
31311;DHT22;17937;51.508;7.534;2022-11-13T12:45:52;16.40;99.90
31311;DHT22;17937;51.508;7.534;2022-11-13T12:50:55;16.40;99.90
31311;DHT22;17937;51.508;7.534;2022-11-13T12:53:30;16.50;99.90
31311;DHT22;17937;51.508;7.534;2022-11-13T12:56:02;16.50;99.90
31311;DHT22;17937;51.508;7.534;2022-11-13T12:58:32;16.50;99.90
31311;DHT22;17937;51.508;7.534;2022-11-13T13:07:00;16.50;99.90
31311;DHT22;17937;51.508;7.534;2022-11-13T13:11:53;16.40;99.90
31311;DHT22;17937;51.508;7.534;2022-11-13T13:14:30;16.50;99.90
31311;DHT22;17937;51.508;7.534;2022-11-13T13:19:40;16.50;99.90
31311;DHT22;17937;51.508;7.534;2022-11-13T13:22:29;16.40;99.90
31311;DHT22;17937;51.508;7.534;2022-11-13T13:25:26;16.40;99.90
31311;DHT22;17937;51.508;7.534;2022-11-13T13:28:00;16.40;99.90
31311;DHT22;17937;51.508;7.534;2022-11-13T13:30:26;16.40;99.90
31311;DHT22;17937;51.508;7.534;2022-11-13T13:35:35;16.30;99.90
31311;DHT22;17937;51.508;7.534;2022-11-13T13:38:26;16.30;99.90
31311;DHT22;17937;51.508;7.534;2022-11-13T13:46:29;16.20;99.90
31311;DHT22;17937;51.508;7.534;2022-11-13T13:49:02;16.10;99.90
31311;DHT22;17937;51.508;7.534;2022-11-13T13:51:32;16.00;99.90
31311;DHT22;17937;51.508;7.534;2022-11-13T13:54:01;16.00;99.90
31311;DHT22;17937;51.508;7.534;2022-11-13T13:56:30;16.00;99.90
31311;DHT22;17937;51.508;7.534;2022-11-13T13:58:57;16.00;99.90
31311;DHT22;17937;51.508;7.534;2022-11-13T14:01:33;15.90;99.90
31311;DHT22;17937;51.508;7.534;2022-11-13T14:04:13;15.90;99.90
31311;DHT22;17937;51.508;7.534;2022-11-13T14:06:53;15.70;99.90
31311;DHT22;17937;51.508;7.534;2022-11-13T14:09:21;15.70;99.90
31311;DHT22;17937;51.508;7.534;2022-11-13T14:12:04;15.60;99.90
31311;DHT22;17937;51.508;7.534;2022-11-13T14:14:31;15.60;99.90
31311;DHT22;17937;51.508;7.534;2022-11-13T14:16:58;15.50;99.90
31311;DHT22;17937;51.508;7.534;2022-11-13T14:19:28;15.40;99.90
31311;DHT22;17937;51.508;7.534;2022-11-13T14:21:59;15.30;99.90
31311;DHT22;17937;51.508;7.534;2022-11-13T14:24:32;15.10;99.90
31311;DHT22;17937;51.508;7.534;2022-11-13T14:27:00;15.00;99.90
31311;DHT22;17937;51.508;7.534;2022-11-13T14:29:43;14.90;99.90
31311;DHT22;17937;51.508;7.534;2022-11-13T14:32:13;14.90;99.90
31311;DHT22;17937;51.508;7.534;2022-11-13T14:34:44;14.80;99.90
31311;DHT22;17937;51.508;7.534;2022-11-13T14:39:46;14.60;99.90
31311;DHT22;17937;51.508;7.534;2022-11-13T14:42:26;14.50;99.90
31311;DHT22;17937;51.508;7.534;2022-11-13T14:44:52;14.40;99.90
31311;DHT22;17937;51.508;7.534;2022-11-13T14:47:24;14.30;99.90
31311;DHT22;17937;51.508;7.534;2022-11-13T14:49:50;14.20;99.90
31311;DHT22;17937;51.508;7.534;2022-11-13T14:52:34;14.20;99.90
31311;DHT22;17937;51.508;7.534;2022-11-13T14:55:01;14.00;99.90
31311;DHT22;17937;51.508;7.534;2022-11-13T14:57:27;13.90;99.90
31311;DHT22;17937;51.508;7.534;2022-11-13T14:59:53;13.70;99.90
31311;DHT22;17937;51.508;7.534;2022-11-13T15:02:19;13.60;99.90
31311;DHT22;17937;51.508;7.534;2022-11-13T15:04:44;13.50;99.90
31311;DHT22;17937;51.508;7.534;2022-11-13T15:07:29;13.50;99.90
31311;DHT22;17937;51.508;7.534;2022-11-13T15:09:55;13.40;99.90
31311;DHT22;17937;51.508;7.534;2022-11-13T15:12:21;13.20;99.90
31311;DHT22;17937;51.508;7.534;2022-11-13T15:14:47;13.10;99.90
31311;DHT22;17937;51.508;7.534;2022-11-13T15:17:18;13.00;99.90
31311;DHT22;17937;51.508;7.534;2022-11-13T15:19:46;12.90;99.90
31311;DHT22;17937;51.508;7.534;2022-11-13T15:22:13;12.70;99.90
31311;DHT22;17937;51.508;7.534;2022-11-13T15:24:39;12.60;99.90
31311;DHT22;17937;51.508;7.534;2022-11-13T15:27:05;12.50;99.90
31311;DHT22;17937;51.508;7.534;2022-11-13T15:29:31;12.40;99.90
31311;DHT22;17937;51.508;7.534;2022-11-13T15:31:57;12.30;99.90
31311;DHT22;17937;51.508;7.534;2022-11-13T15:34:23;12.20;99.90
31311;DHT22;17937;51.508;7.534;2022-11-13T15:36:48;12.10;99.90
31311;DHT22;17937;51.508;7.534;2022-11-13T15:39:14;12.00;99.90
31311;DHT22;17937;51.508;7.534;2022-11-13T15:41:40;11.90;99.90
31311;DHT22;17937;51.508;7.534;2022-11-13T15:44:10;11.80;99.90
31311;DHT22;17937;51.508;7.534;2022-11-13T15:46:37;11.70;99.90
31311;DHT22;17937;51.508;7.534;2022-11-13T15:49:03;11.60;99.90
31311;DHT22;17937;51.508;7.534;2022-11-13T15:51:35;11.50;99.90
31311;DHT22;17937;51.508;7.534;2022-11-13T15:56:27;11.30;99.90
31311;DHT22;17937;51.508;7.534;2022-11-13T15:58:54;11.40;99.90
31311;DHT22;17937;51.508;7.534;2022-11-13T16:01:19;11.30;99.90
31311;DHT22;17937;51.508;7.534;2022-11-13T16:03:45;11.40;99.90
31311;DHT22;17937;51.508;7.534;2022-11-13T16:06:19;11.40;99.90
31311;DHT22;17937;51.508;7.534;2022-11-13T16:08:46;11.30;99.90
31311;DHT22;17937;51.508;7.534;2022-11-13T16:11:15;11.30;99.90
31311;DHT22;17937;51.508;7.534;2022-11-13T16:13:41;11.30;99.90
31311;DHT22;17937;51.508;7.534;2022-11-13T16:16:13;11.20;99.90
31311;DHT22;17937;51.508;7.534;2022-11-13T16:18:40;11.20;99.90
31311;DHT22;17937;51.508;7.534;2022-11-13T16:21:10;11.30;99.90
31311;DHT22;17937;51.508;7.534;2022-11-13T16:23:37;11.50;99.90
31311;DHT22;17937;51.508;7.534;2022-11-13T16:26:04;11.60;99.90
31311;DHT22;17937;51.508;7.534;2022-11-13T16:28:30;11.50;99.90
31311;DHT22;17937;51.508;7.534;2022-11-13T16:30:55;11.50;99.90
31311;DHT22;17937;51.508;7.534;2022-11-13T16:33:22;11.40;99.90
31311;DHT22;17937;51.508;7.534;2022-11-13T16:35:48;11.30;99.90
31311;DHT22;17937;51.508;7.534;2022-11-13T16:38:14;11.20;99.90
31311;DHT22;17937;51.508;7.534;2022-11-13T16:40:39;11.10;99.90
31311;DHT22;17937;51.508;7.534;2022-11-13T16:43:10;11.10;99.90
31311;DHT22;17937;51.508;7.534;2022-11-13T16:45:37;11.00;99.90
31311;DHT22;17937;51.508;7.534;2022-11-13T16:48:11;10.90;99.90
31311;DHT22;17937;51.508;7.534;2022-11-13T16:50:38;10.80;99.90